createdAt,value
2022-09-28T00:00:50.615Z,0.00
2022-09-28T00:01:50.684Z,0.00
2022-09-28T00:02:50.720Z,0.00
2022-09-28T00:03:50.579Z,0.00
2022-09-28T00:04:50.570Z,0.00
2022-09-28T00:05:50.558Z,0.00
2022-09-28T00:06:50.543Z,0.00
2022-09-28T00:07:50.546Z,0.00
2022-09-28T00:08:50.522Z,0.00
2022-09-28T00:09:50.559Z,0.00
2022-09-28T00:10:50.499Z,0.00
2022-09-28T00:11:50.490Z,0.00
2022-09-28T00:12:50.503Z,0.00
2022-09-28T00:13:50.468Z,0.00
2022-09-28T00:14:50.458Z,0.00
2022-09-28T00:15:50.452Z,0.00
2022-09-28T00:16:50.494Z,0.00
2022-09-28T00:17:50.436Z,0.00
2022-09-28T00:18:50.412Z,0.00
2022-09-28T00:19:50.404Z,0.00
2022-09-28T00:20:50.394Z,0.00
2022-09-28T00:21:50.381Z,0.00
2022-09-28T00:22:50.386Z,0.00
2022-09-28T00:23:50.360Z,0.00
2022-09-28T00:24:50.346Z,0.00
2022-09-28T00:25:50.347Z,0.00
2022-09-28T00:26:50.326Z,0.00
2022-09-28T00:27:50.334Z,0.00
2022-09-28T00:28:50.323Z,0.00
2022-09-28T00:29:50.293Z,0.00
2022-09-28T00:30:50.280Z,0.00
2022-09-28T00:31:50.355Z,0.00
2022-09-28T00:32:50.269Z,0.00
2022-09-28T00:33:50.249Z,0.00
2022-09-28T00:34:50.239Z,0.00
2022-09-28T00:35:50.228Z,0.00
2022-09-28T00:36:50.218Z,0.00
2022-09-28T00:37:50.214Z,0.00
2022-09-28T00:38:50.192Z,0.00
2022-09-28T00:39:50.182Z,0.00
2022-09-28T00:40:50.318Z,0.00
2022-09-28T00:41:50.163Z,0.00
2022-09-28T00:42:50.158Z,0.00
2022-09-28T00:43:50.141Z,0.00
2022-09-28T00:44:50.148Z,0.00
2022-09-28T00:45:50.173Z,0.00
2022-09-28T00:46:50.108Z,0.00
2022-09-28T00:47:50.108Z,0.00
2022-09-28T00:48:50.082Z,0.00
2022-09-28T00:49:50.073Z,0.00
2022-09-28T00:50:50.062Z,0.00
2022-09-28T00:51:50.052Z,0.00
2022-09-28T00:52:50.052Z,0.00
2022-09-28T00:53:50.029Z,0.00
2022-09-28T00:54:50.020Z,0.00
2022-09-28T00:55:50.007Z,0.00
2022-09-28T00:56:49.996Z,0.00
2022-09-28T00:57:49.998Z,0.00
2022-09-28T00:58:49.980Z,0.00
2022-09-28T00:59:49.961Z,0.00
2022-09-28T01:00:50.028Z,0.00
2022-09-28T01:01:49.990Z,0.00
2022-09-28T01:02:49.942Z,0.00
2022-09-28T01:03:49.919Z,0.00
2022-09-28T01:04:49.911Z,0.00
2022-09-28T01:05:49.901Z,0.00
2022-09-28T01:06:49.887Z,0.00
2022-09-28T01:07:49.885Z,0.00
2022-09-28T01:08:49.866Z,0.00
2022-09-28T01:09:49.852Z,0.00
2022-09-28T01:10:49.843Z,0.00
2022-09-28T01:11:49.832Z,0.00
2022-09-28T01:12:49.831Z,0.00
2022-09-28T01:13:49.809Z,0.00
2022-09-28T01:14:49.800Z,0.00
2022-09-28T01:15:49.787Z,0.00
2022-09-28T01:16:49.913Z,0.00
2022-09-28T01:17:49.774Z,0.00
2022-09-28T01:18:49.758Z,0.00
2022-09-28T01:19:49.744Z,0.00
2022-09-28T01:20:49.801Z,0.00
2022-09-28T01:21:49.723Z,0.00
2022-09-28T01:22:49.727Z,0.00
2022-09-28T01:23:49.701Z,0.00
2022-09-28T01:24:49.691Z,0.00
2022-09-28T01:25:49.680Z,0.00
2022-09-28T01:26:49.669Z,0.00
2022-09-28T01:27:49.668Z,0.00
2022-09-28T01:28:49.647Z,0.00
2022-09-28T01:29:49.635Z,0.00
2022-09-28T01:30:49.628Z,0.00
2022-09-28T01:31:49.635Z,0.00
2022-09-28T01:32:49.633Z,0.00
2022-09-28T01:33:49.591Z,0.00
2022-09-28T01:34:49.584Z,0.00
2022-09-28T01:35:49.570Z,0.00
2022-09-28T01:36:49.570Z,0.00
2022-09-28T01:37:49.549Z,0.00
2022-09-28T01:38:49.538Z,0.00
2022-09-28T01:39:49.527Z,0.00
2022-09-28T01:40:49.567Z,0.00
2022-09-28T01:41:49.522Z,0.00
2022-09-28T01:42:49.495Z,0.00
2022-09-28T01:43:49.483Z,0.00
2022-09-28T01:44:49.473Z,0.00
2022-09-28T01:45:49.521Z,0.00
2022-09-28T01:46:49.460Z,0.00
2022-09-28T01:47:49.441Z,0.00
2022-09-28T01:48:49.448Z,0.00
2022-09-28T01:49:49.415Z,0.00
2022-09-28T01:50:49.409Z,0.00
2022-09-28T01:51:49.406Z,0.00
2022-09-28T01:52:49.386Z,0.00
2022-09-28T01:53:49.372Z,0.00
2022-09-28T01:54:49.363Z,0.00
2022-09-28T01:55:49.349Z,0.00
2022-09-28T01:56:49.350Z,0.00
2022-09-28T01:57:49.328Z,0.00
2022-09-28T01:58:49.321Z,0.00
2022-09-28T01:59:49.307Z,0.00
2022-09-28T02:00:49.314Z,0.00
2022-09-28T02:01:49.386Z,0.00
2022-09-28T02:02:49.279Z,0.00
2022-09-28T02:03:49.263Z,0.00
2022-09-28T02:04:49.273Z,0.00
2022-09-28T02:05:49.245Z,0.00
2022-09-28T02:06:49.246Z,0.00
2022-09-28T02:07:49.226Z,0.00
2022-09-28T02:08:49.211Z,0.00
2022-09-28T02:09:49.199Z,0.00
2022-09-28T02:10:49.193Z,0.00
2022-09-28T02:11:49.187Z,0.00
2022-09-28T02:12:49.168Z,0.00
2022-09-28T02:13:49.155Z,0.00
2022-09-28T02:14:49.150Z,0.00
2022-09-28T02:15:49.141Z,0.00
2022-09-28T02:16:49.122Z,0.00
2022-09-28T02:17:49.112Z,0.00
2022-09-28T02:18:49.114Z,0.00
2022-09-28T02:19:49.088Z,0.00
2022-09-28T02:20:49.107Z,0.00
2022-09-28T02:21:49.066Z,0.00
2022-09-28T02:22:49.057Z,0.00
2022-09-28T02:23:49.043Z,0.00
2022-09-28T02:24:49.034Z,0.00
2022-09-28T02:25:49.087Z,0.00
2022-09-28T02:26:49.014Z,0.00
2022-09-28T02:27:49.012Z,0.00
2022-09-28T02:28:48.990Z,0.00
2022-09-28T02:29:48.977Z,0.00
2022-09-28T02:30:48.980Z,0.00
2022-09-28T02:31:49.024Z,0.00
2022-09-28T02:32:48.978Z,0.00
2022-09-28T02:33:48.938Z,0.00
2022-09-28T02:34:48.924Z,0.00
2022-09-28T02:35:48.922Z,0.00
2022-09-28T02:36:48.921Z,0.00
2022-09-28T02:37:48.890Z,0.00
2022-09-28T02:38:48.885Z,0.00
2022-09-28T02:39:48.868Z,0.00
2022-09-28T02:40:48.928Z,0.00
2022-09-28T02:41:48.845Z,0.00
2022-09-28T02:42:48.835Z,0.00
2022-09-28T02:43:48.823Z,0.00
2022-09-28T02:44:48.814Z,0.00
2022-09-28T02:45:48.874Z,0.00
2022-09-28T02:46:48.821Z,0.00
2022-09-28T02:47:48.780Z,0.00
2022-09-28T02:49:00.133Z,0.00
2022-09-28T02:49:49.757Z,0.00
2022-09-28T02:50:48.770Z,0.00
2022-09-28T02:51:48.740Z,0.00
2022-09-28T02:52:48.744Z,0.00
2022-09-28T02:53:48.715Z,0.00
2022-09-28T02:54:48.711Z,0.00
2022-09-28T02:55:48.700Z,0.00
2022-09-28T02:56:48.682Z,0.00
2022-09-28T02:57:55.185Z,0.00
2022-09-28T02:58:48.660Z,0.00
2022-09-28T02:59:48.650Z,0.00
2022-09-28T03:00:48.683Z,0.00
2022-09-28T03:01:48.736Z,0.00
2022-09-28T03:02:48.623Z,0.00
2022-09-28T03:03:48.618Z,0.00
2022-09-28T03:04:48.599Z,0.00
2022-09-28T03:05:48.592Z,0.00
2022-09-28T03:06:48.580Z,0.00
2022-09-28T03:07:48.562Z,0.00
2022-09-28T03:08:48.576Z,0.00
2022-09-28T03:09:48.552Z,0.00
2022-09-28T03:10:48.529Z,0.00
2022-09-28T03:11:48.516Z,0.00
2022-09-28T03:12:48.568Z,0.00
2022-09-28T03:13:48.493Z,0.00
2022-09-28T03:14:48.496Z,0.00
2022-09-28T03:15:49.108Z,0.00
2022-09-28T03:16:48.464Z,0.00
2022-09-28T03:17:48.451Z,0.00
2022-09-28T03:18:48.441Z,0.00
2022-09-28T03:19:48.442Z,0.00
2022-09-28T03:20:48.418Z,0.00
2022-09-28T03:21:48.406Z,0.00
2022-09-28T03:23:00.477Z,0.00
2022-09-28T03:23:49.381Z,0.00
2022-09-28T03:24:48.412Z,0.00
2022-09-28T03:25:48.367Z,0.00
2022-09-28T03:26:48.353Z,0.00
2022-09-28T03:27:48.339Z,0.00
2022-09-28T03:28:48.330Z,0.00
2022-09-28T03:29:48.329Z,0.00
2022-09-28T03:30:48.358Z,0.00
2022-09-28T03:31:48.390Z,0.00
2022-09-28T03:32:48.285Z,0.00
2022-09-28T03:33:48.277Z,0.00
2022-09-28T03:34:48.277Z,0.00
2022-09-28T03:35:48.253Z,0.00
2022-09-28T03:36:48.273Z,0.00
2022-09-28T03:37:48.230Z,0.00
2022-09-28T03:38:48.221Z,0.00
2022-09-28T03:39:48.220Z,0.00
2022-09-28T03:40:48.318Z,0.00
2022-09-28T03:41:48.218Z,0.00
2022-09-28T03:42:48.184Z,0.00
2022-09-28T03:43:48.177Z,0.00
2022-09-28T03:44:48.156Z,0.00
2022-09-28T03:45:48.211Z,0.00
2022-09-28T03:46:48.134Z,0.00
2022-09-28T03:47:48.121Z,0.00
2022-09-28T03:48:48.126Z,0.00
2022-09-28T03:49:48.102Z,0.00
2022-09-28T03:50:48.090Z,0.00
2022-09-28T03:51:48.080Z,0.00
2022-09-28T03:52:48.080Z,0.00
2022-09-28T03:53:48.068Z,0.00
2022-09-28T03:54:49.394Z,0.00
2022-09-28T03:55:48.034Z,0.00
2022-09-28T03:56:48.049Z,0.00
2022-09-28T03:57:48.012Z,0.00
2022-09-28T03:58:48.012Z,0.00
2022-09-28T03:59:47.989Z,0.00
2022-09-28T04:00:48.033Z,0.00
2022-09-28T04:01:48.013Z,0.00
2022-09-28T04:02:47.961Z,0.00
2022-09-28T04:03:47.963Z,0.00
2022-09-28T04:04:47.935Z,0.00
2022-09-28T04:05:47.923Z,0.00
2022-09-28T04:06:47.914Z,0.00
2022-09-28T04:07:47.904Z,0.00
2022-09-28T04:08:47.904Z,0.00
2022-09-28T04:09:47.880Z,0.00
2022-09-28T04:10:47.873Z,0.00
2022-09-28T04:12:03.287Z,0.00
2022-09-28T04:12:48.865Z,0.00
2022-09-28T04:13:47.860Z,0.00
2022-09-28T04:14:47.826Z,0.00
2022-09-28T04:15:47.814Z,0.00
2022-09-28T04:16:47.835Z,0.00
2022-09-28T04:17:47.794Z,0.00
2022-09-28T04:18:47.794Z,0.00
2022-09-28T04:19:47.770Z,0.00
2022-09-28T04:20:47.761Z,0.00
2022-09-28T04:21:47.750Z,0.00
2022-09-28T04:22:47.740Z,0.00
2022-09-28T04:23:47.765Z,0.00
2022-09-28T04:24:47.717Z,0.00
2022-09-28T04:25:47.706Z,0.00
2022-09-28T04:26:47.695Z,0.00
2022-09-28T04:27:47.682Z,0.00
2022-09-28T04:28:47.843Z,0.00
2022-09-28T04:29:47.663Z,0.00
2022-09-28T04:30:47.652Z,0.00
2022-09-28T04:31:47.701Z,0.00
2022-09-28T04:32:47.633Z,0.00
2022-09-28T04:33:47.629Z,0.00
2022-09-28T04:34:47.606Z,0.00
2022-09-28T04:35:47.637Z,0.00
2022-09-28T04:36:47.588Z,0.00
2022-09-28T04:37:47.575Z,0.00
2022-09-28T04:38:54.744Z,0.00
2022-09-28T04:39:48.800Z,0.00
2022-09-28T04:40:47.583Z,0.00
2022-09-28T04:41:47.529Z,0.00
2022-09-28T04:42:47.520Z,0.00
2022-09-28T04:43:47.521Z,0.00
2022-09-28T04:44:47.527Z,0.00
2022-09-28T04:45:47.527Z,0.00
2022-09-28T04:46:47.477Z,0.00
2022-09-28T04:47:47.464Z,0.00
2022-09-28T04:48:47.465Z,0.00
2022-09-28T04:49:47.442Z,0.00
2022-09-28T04:50:47.434Z,0.00
2022-09-28T04:51:47.455Z,0.00
2022-09-28T04:52:47.411Z,0.00
2022-09-28T04:53:47.411Z,0.00
2022-09-28T04:54:47.389Z,0.00
2022-09-28T04:55:47.376Z,0.00
2022-09-28T04:56:47.369Z,0.00
2022-09-28T04:57:47.364Z,0.00
2022-09-28T04:58:51.877Z,0.00
2022-09-28T04:59:48.332Z,0.00
2022-09-28T05:00:47.375Z,0.00
2022-09-28T05:01:47.310Z,0.00
2022-09-28T05:02:47.302Z,0.00
2022-09-28T05:03:47.302Z,0.00
2022-09-28T05:04:47.288Z,0.00
2022-09-28T05:05:47.266Z,0.00
2022-09-28T05:06:47.258Z,0.00
2022-09-28T05:07:47.245Z,0.00
2022-09-28T05:08:47.267Z,0.00
2022-09-28T05:09:47.223Z,0.00
2022-09-28T05:10:47.212Z,0.00
2022-09-28T05:11:47.215Z,0.00
2022-09-28T05:12:47.192Z,0.00
2022-09-28T05:13:47.195Z,0.00
2022-09-28T05:14:47.167Z,0.00
2022-09-28T05:15:47.158Z,0.00
2022-09-28T05:16:47.255Z,0.00
2022-09-28T05:17:47.139Z,0.00
2022-09-28T05:18:47.135Z,0.00
2022-09-28T05:19:47.113Z,0.00
2022-09-28T05:20:47.111Z,0.00
2022-09-28T05:21:47.096Z,0.00
2022-09-28T05:22:47.079Z,0.00
2022-09-28T05:23:47.082Z,0.00
2022-09-28T05:24:47.056Z,0.00
2022-09-28T05:25:47.048Z,0.00
2022-09-28T05:26:47.034Z,0.00
2022-09-28T05:27:47.025Z,0.00
2022-09-28T05:28:47.024Z,5.62
2022-09-28T05:29:47.008Z,5.62
2022-09-28T05:30:46.990Z,5.62
2022-09-28T05:31:47.031Z,5.62
2022-09-28T05:32:46.989Z,5.62
2022-09-28T05:33:46.973Z,5.62
2022-09-28T05:34:46.952Z,5.62
2022-09-28T05:35:51.019Z,5.62
2022-09-28T05:36:47.924Z,5.62
2022-09-28T05:37:46.916Z,5.62
2022-09-28T05:38:46.915Z,5.62
2022-09-28T05:39:46.895Z,5.62
2022-09-28T05:40:46.941Z,5.62
2022-09-28T05:41:46.872Z,11.25
2022-09-28T05:42:46.857Z,11.25
2022-09-28T05:43:46.863Z,11.25
2022-09-28T05:44:46.837Z,11.25
2022-09-28T05:45:49.350Z,11.25
2022-09-28T05:46:46.816Z,16.88
2022-09-28T05:47:46.808Z,16.88
2022-09-28T05:48:46.822Z,22.50
2022-09-28T05:49:46.784Z,28.12
2022-09-28T05:50:46.771Z,33.75
2022-09-28T05:51:46.782Z,39.38
2022-09-28T05:52:46.770Z,56.25
2022-09-28T05:53:46.751Z,56.25
2022-09-28T05:54:46.731Z,61.88
2022-09-28T05:55:46.780Z,73.12
2022-09-28T05:56:46.712Z,84.38
2022-09-28T05:57:46.696Z,90.00
2022-09-28T05:58:46.696Z,106.88
2022-09-28T05:59:46.675Z,123.75
2022-09-28T06:00:46.712Z,168.75
2022-09-28T06:01:46.655Z,151.88
2022-09-28T06:02:46.709Z,168.75
2022-09-28T06:03:46.642Z,191.25
2022-09-28T06:04:46.635Z,180.00
2022-09-28T06:05:46.610Z,185.62
2022-09-28T06:06:46.602Z,168.75
2022-09-28T06:07:46.587Z,180.00
2022-09-28T06:08:46.584Z,196.88
2022-09-28T06:09:46.566Z,270.00
2022-09-28T06:10:46.555Z,348.75
2022-09-28T06:11:46.546Z,461.25
2022-09-28T06:12:46.533Z,579.38
2022-09-28T06:13:46.540Z,641.25
2022-09-28T06:14:46.509Z,658.12
2022-09-28T06:15:46.505Z,675.00
2022-09-28T06:16:46.563Z,686.25
2022-09-28T06:17:46.479Z,686.25
2022-09-28T06:18:46.481Z,703.12
2022-09-28T06:19:46.458Z,725.62
2022-09-28T06:20:46.461Z,731.25
2022-09-28T06:21:46.441Z,714.38
2022-09-28T06:22:46.422Z,686.25
2022-09-28T06:23:49.154Z,658.12
2022-09-28T06:24:46.412Z,641.25
2022-09-28T06:25:46.393Z,675.00
2022-09-28T06:26:46.387Z,635.62
2022-09-28T06:27:46.375Z,675.00
2022-09-28T06:28:46.372Z,675.00
2022-09-28T06:29:46.349Z,573.75
2022-09-28T06:30:46.379Z,534.38
2022-09-28T06:31:46.335Z,613.12
2022-09-28T06:32:46.316Z,714.38
2022-09-28T06:33:46.331Z,742.50
2022-09-28T06:34:46.305Z,680.62
2022-09-28T06:35:46.285Z,669.38
2022-09-28T06:36:46.289Z,669.38
2022-09-28T06:37:46.271Z,793.12
2022-09-28T06:38:46.260Z,832.50
2022-09-28T06:39:46.241Z,883.12
2022-09-28T06:40:46.322Z,950.62
2022-09-28T06:41:46.219Z,973.12
2022-09-28T06:42:46.208Z,995.62
2022-09-28T06:43:46.216Z,1035.00
2022-09-28T06:44:46.209Z,1046.25
2022-09-28T06:45:46.190Z,1057.50
2022-09-28T06:46:46.171Z,1096.88
2022-09-28T06:47:46.156Z,1158.75
2022-09-28T06:48:46.159Z,1203.75
2022-09-28T06:49:46.132Z,1203.75
2022-09-28T06:50:46.122Z,1231.88
2022-09-28T06:51:46.114Z,1276.88
2022-09-28T06:52:46.115Z,1288.12
2022-09-28T06:53:46.099Z,1327.50
2022-09-28T06:54:46.078Z,1389.38
2022-09-28T06:55:46.106Z,1406.25
2022-09-28T06:56:46.055Z,1406.25
2022-09-28T06:57:46.046Z,1411.88
2022-09-28T06:58:46.043Z,1428.75
2022-09-28T06:59:46.024Z,1456.88
2022-09-28T07:00:46.076Z,1569.38
2022-09-28T07:01:46.069Z,1558.12
2022-09-28T07:02:46.018Z,1507.50
2022-09-28T07:03:45.991Z,1541.25
2022-09-28T07:04:45.969Z,1558.12
2022-09-28T07:05:45.960Z,1620.00
2022-09-28T07:06:45.947Z,1648.12
2022-09-28T07:07:45.942Z,1681.88
2022-09-28T07:08:53.172Z,1648.12
2022-09-28T07:09:51.312Z,1563.75
2022-09-28T07:10:46.909Z,1513.12
2022-09-28T07:11:45.897Z,1546.88
2022-09-28T07:12:45.883Z,1591.88
2022-09-28T07:13:50.699Z,1546.88
2022-09-28T07:14:48.075Z,1535.62
2022-09-28T07:15:45.874Z,1546.88
2022-09-28T07:17:09.666Z,1575.00
2022-09-28T07:17:58.657Z,1580.62
2022-09-28T07:18:46.829Z,1631.25
2022-09-28T07:19:45.815Z,1693.12
2022-09-28T07:20:53.413Z,1704.38
2022-09-28T07:21:56.079Z,1563.75
2022-09-28T07:22:46.782Z,1530.00
2022-09-28T07:23:53.494Z,1575.00
2022-09-28T07:24:46.775Z,1620.00
2022-09-28T07:25:45.750Z,1771.88
2022-09-28T07:26:45.739Z,1816.88
2022-09-28T07:27:45.741Z,1698.75
2022-09-28T07:28:45.714Z,1681.88
2022-09-28T07:29:45.709Z,1715.62
2022-09-28T07:30:45.780Z,1670.62
2022-09-28T07:31:45.687Z,1659.38
2022-09-28T07:32:45.685Z,1710.00
2022-09-28T07:33:45.664Z,1721.25
2022-09-28T07:34:45.655Z,1642.50
2022-09-28T07:35:45.655Z,1681.88
2022-09-28T07:36:45.634Z,1631.25
2022-09-28T07:37:45.635Z,1710.00
2022-09-28T07:38:45.614Z,1721.25
2022-09-28T07:39:45.615Z,1496.25
2022-09-28T07:40:48.380Z,1406.25
2022-09-28T07:41:45.587Z,1265.62
2022-09-28T07:42:45.581Z,1040.62
2022-09-28T07:43:45.569Z,1091.25
2022-09-28T07:44:45.572Z,1006.88
2022-09-28T07:45:45.601Z,1063.12
2022-09-28T07:46:45.530Z,990.00
2022-09-28T07:47:45.542Z,736.88
2022-09-28T07:48:45.512Z,1018.12
2022-09-28T07:49:45.514Z,922.50
2022-09-28T07:50:45.489Z,781.88
2022-09-28T07:51:45.485Z,821.25
2022-09-28T07:52:45.485Z,832.50
2022-09-28T07:53:45.463Z,928.12
2022-09-28T07:54:45.445Z,911.25
2022-09-28T07:55:45.440Z,967.50
2022-09-28T07:56:45.443Z,1006.88
2022-09-28T07:57:45.441Z,798.75
2022-09-28T07:58:45.403Z,770.62
2022-09-28T07:59:45.394Z,708.75
2022-09-28T08:00:45.386Z,714.38
2022-09-28T08:01:45.505Z,663.75
2022-09-28T08:02:45.436Z,646.88
2022-09-28T08:03:45.365Z,725.62
2022-09-28T08:04:45.353Z,736.88
2022-09-28T08:05:45.331Z,810.00
2022-09-28T08:06:45.317Z,933.75
2022-09-28T08:07:45.327Z,1012.50
2022-09-28T08:08:45.296Z,810.00
2022-09-28T08:09:45.286Z,388.12
2022-09-28T08:10:47.292Z,438.75
2022-09-28T08:11:45.269Z,551.25
2022-09-28T08:12:45.282Z,624.38
2022-09-28T08:13:45.246Z,663.75
2022-09-28T08:14:45.232Z,540.00
2022-09-28T08:15:45.225Z,478.12
2022-09-28T08:16:46.726Z,405.00
2022-09-28T08:17:45.200Z,534.38
2022-09-28T08:18:45.198Z,461.25
2022-09-28T08:19:45.185Z,371.25
2022-09-28T08:20:48.101Z,405.00
2022-09-28T08:21:46.157Z,427.50
2022-09-28T08:22:45.142Z,393.75
2022-09-28T08:23:45.176Z,376.88
2022-09-28T08:24:45.120Z,388.12
2022-09-28T08:25:45.113Z,376.88
2022-09-28T08:26:45.098Z,360.00
2022-09-28T08:27:45.089Z,331.88
2022-09-28T08:28:45.292Z,354.38
2022-09-28T08:29:45.080Z,348.75
2022-09-28T08:30:45.101Z,320.62
2022-09-28T08:31:45.060Z,258.75
2022-09-28T08:32:45.043Z,219.38
2022-09-28T08:33:45.026Z,225.00
2022-09-28T08:34:45.024Z,196.88
2022-09-28T08:35:45.006Z,202.50
2022-09-28T08:36:45.016Z,253.12
2022-09-28T08:37:50.573Z,202.50
2022-09-28T08:38:45.978Z,343.12
2022-09-28T08:39:44.965Z,208.12
2022-09-28T08:40:45.080Z,180.00
2022-09-28T08:41:44.942Z,185.62
2022-09-28T08:42:44.944Z,208.12
2022-09-28T08:43:44.919Z,236.25
2022-09-28T08:44:44.948Z,286.88
2022-09-28T08:45:44.939Z,241.88
2022-09-28T08:46:44.889Z,230.62
2022-09-28T08:47:44.884Z,247.50
2022-09-28T08:48:51.771Z,253.12
2022-09-28T08:49:45.876Z,225.00
2022-09-28T08:50:44.844Z,230.62
2022-09-28T08:51:44.832Z,258.75
2022-09-28T08:52:44.837Z,253.12
2022-09-28T08:53:44.828Z,225.00
2022-09-28T08:54:44.801Z,196.88
2022-09-28T08:55:44.792Z,202.50
2022-09-28T08:56:44.780Z,157.50
2022-09-28T08:57:44.781Z,140.62
2022-09-28T08:58:44.755Z,146.25
2022-09-28T08:59:44.748Z,157.50
2022-09-28T09:00:44.756Z,174.38
2022-09-28T09:01:44.838Z,191.25
2022-09-28T09:02:44.739Z,236.25
2022-09-28T09:03:44.706Z,388.12
2022-09-28T09:04:44.692Z,568.12
2022-09-28T09:05:44.682Z,545.62
2022-09-28T09:06:44.731Z,708.75
2022-09-28T09:07:44.669Z,405.00
2022-09-28T09:08:44.649Z,405.00
2022-09-28T09:09:44.639Z,540.00
2022-09-28T09:10:44.629Z,686.25
2022-09-28T09:11:44.618Z,596.25
2022-09-28T09:12:44.643Z,714.38
2022-09-28T09:13:44.596Z,579.38
2022-09-28T09:14:44.587Z,1220.62
2022-09-28T09:15:44.576Z,1333.12
2022-09-28T09:16:44.660Z,1535.62
2022-09-28T09:17:44.562Z,1501.88
2022-09-28T09:18:44.538Z,1276.88
2022-09-28T09:19:44.530Z,1462.50
2022-09-28T09:20:44.518Z,1125.00
2022-09-28T09:21:44.514Z,427.50
2022-09-28T09:22:44.507Z,354.38
2022-09-28T09:23:44.487Z,540.00
2022-09-28T09:24:44.476Z,1777.50
2022-09-28T09:25:44.468Z,2115.00
2022-09-28T09:26:44.461Z,2396.25
2022-09-28T09:27:44.505Z,1833.75
2022-09-28T09:28:44.436Z,2008.12
2022-09-28T09:29:44.425Z,2700.00
2022-09-28T09:30:44.444Z,2733.75
2022-09-28T09:31:44.417Z,2323.12
2022-09-28T09:32:44.409Z,2823.75
2022-09-28T09:33:44.413Z,1890.00
2022-09-28T09:34:44.371Z,2334.38
2022-09-28T09:35:44.363Z,3121.88
2022-09-28T09:36:44.362Z,3043.12
2022-09-28T09:37:44.337Z,2306.25
2022-09-28T09:38:44.328Z,2745.00
2022-09-28T09:39:44.314Z,2795.62
2022-09-28T09:40:44.335Z,2182.50
2022-09-28T09:41:44.294Z,489.38
2022-09-28T09:42:44.300Z,691.88
2022-09-28T09:43:44.276Z,3380.62
2022-09-28T09:44:44.263Z,3555.00
2022-09-28T09:45:44.307Z,3470.62
2022-09-28T09:46:44.242Z,1063.12
2022-09-28T09:47:44.240Z,1113.75
2022-09-28T09:48:44.239Z,3166.88
2022-09-28T09:49:44.244Z,3178.12
2022-09-28T09:50:44.201Z,1051.88
2022-09-28T09:51:44.190Z,427.50
2022-09-28T09:52:44.487Z,298.12
2022-09-28T09:53:44.168Z,264.38
2022-09-28T09:54:44.158Z,258.75
2022-09-28T09:55:44.147Z,264.38
2022-09-28T09:56:44.172Z,281.25
2022-09-28T09:57:44.133Z,281.25
2022-09-28T09:58:44.119Z,275.62
2022-09-28T09:59:44.104Z,286.88
2022-09-28T10:00:44.093Z,309.38
2022-09-28T10:01:44.112Z,731.25
2022-09-28T10:02:44.127Z,433.12
2022-09-28T10:03:44.061Z,945.00
2022-09-28T10:04:44.072Z,2756.25
2022-09-28T10:05:44.041Z,2120.62
2022-09-28T10:06:44.037Z,1867.50
2022-09-28T10:07:44.030Z,2176.88
2022-09-28T10:08:44.009Z,1434.38
2022-09-28T10:09:43.995Z,1018.12
2022-09-28T10:10:43.986Z,905.62
2022-09-28T10:11:43.973Z,399.38
2022-09-28T10:12:43.975Z,354.38
2022-09-28T10:13:43.953Z,326.25
2022-09-28T10:14:43.944Z,258.75
2022-09-28T10:15:43.931Z,247.50
2022-09-28T10:16:43.978Z,303.75
2022-09-28T10:17:43.920Z,219.38
2022-09-28T10:18:43.899Z,275.62
2022-09-28T10:19:43.897Z,253.12
2022-09-28T10:20:43.899Z,241.88
2022-09-28T10:21:43.866Z,236.25
2022-09-28T10:22:43.865Z,247.50
2022-09-28T10:23:43.844Z,258.75
2022-09-28T10:24:43.842Z,264.38
2022-09-28T10:25:43.825Z,309.38
2022-09-28T10:26:43.824Z,371.25
2022-09-28T10:27:43.800Z,354.38
2022-09-28T10:28:43.799Z,343.12
2022-09-28T10:29:43.779Z,382.50
2022-09-28T10:30:43.810Z,376.88
2022-09-28T10:31:43.767Z,388.12
2022-09-28T10:32:43.747Z,399.38
2022-09-28T10:33:43.809Z,410.62
2022-09-28T10:34:47.495Z,416.25
2022-09-28T10:35:44.714Z,416.25
2022-09-28T10:36:43.745Z,421.88
2022-09-28T10:37:43.696Z,433.12
2022-09-28T10:38:43.686Z,410.62
2022-09-28T10:39:43.673Z,393.75
2022-09-28T10:40:43.814Z,399.38
2022-09-28T10:41:43.662Z,376.88
2022-09-28T10:42:43.642Z,343.12
2022-09-28T10:43:46.562Z,309.38
2022-09-28T10:44:44.620Z,286.88
2022-09-28T10:45:43.667Z,253.12
2022-09-28T10:46:43.609Z,241.88
2022-09-28T10:47:43.588Z,230.62
2022-09-28T10:48:43.577Z,225.00
2022-09-28T10:49:46.983Z,213.75
2022-09-28T10:50:43.557Z,196.88
2022-09-28T10:51:43.553Z,185.62
2022-09-28T10:52:43.552Z,174.38
2022-09-28T10:53:43.525Z,168.75
2022-09-28T10:54:43.514Z,163.12
2022-09-28T10:55:43.504Z,157.50
2022-09-28T10:56:43.504Z,151.88
2022-09-28T10:57:43.482Z,146.25
2022-09-28T10:58:43.469Z,146.25
2022-09-28T10:59:43.457Z,140.62
2022-09-28T11:00:43.447Z,140.62
2022-09-28T11:01:43.521Z,140.62
2022-09-28T11:02:43.444Z,146.25
2022-09-28T11:03:43.441Z,146.25
2022-09-28T11:04:43.411Z,151.88
2022-09-28T11:05:43.393Z,157.50
2022-09-28T11:06:43.392Z,157.50
2022-09-28T11:07:43.401Z,163.12
2022-09-28T11:08:44.582Z,163.12
2022-09-28T11:09:46.220Z,163.12
2022-09-28T11:10:43.356Z,163.12
2022-09-28T11:11:43.335Z,163.12
2022-09-28T11:12:43.315Z,157.50
2022-09-28T11:13:43.362Z,151.88
2022-09-28T11:14:43.296Z,146.25
2022-09-28T11:15:43.289Z,140.62
2022-09-28T11:16:43.343Z,140.62
2022-09-28T11:17:43.265Z,135.00
2022-09-28T11:18:43.252Z,135.00
2022-09-28T11:19:43.241Z,135.00
2022-09-28T11:20:45.406Z,140.62
2022-09-28T11:21:43.228Z,140.62
2022-09-28T11:22:43.209Z,146.25
2022-09-28T11:23:43.196Z,146.25
2022-09-28T11:24:43.206Z,151.88
2022-09-28T11:25:43.175Z,157.50
2022-09-28T11:26:43.180Z,157.50
2022-09-28T11:27:43.152Z,163.12
2022-09-28T11:28:43.144Z,163.12
2022-09-28T11:29:43.136Z,168.75
2022-09-28T11:30:43.231Z,168.75
2022-09-28T11:31:43.122Z,168.75
2022-09-28T11:32:43.101Z,168.75
2022-09-28T11:33:43.086Z,168.75
2022-09-28T11:34:58.667Z,163.12
2022-09-28T11:35:44.067Z,163.12
2022-09-28T11:36:43.069Z,163.12
2022-09-28T11:37:43.043Z,163.12
2022-09-28T11:38:43.034Z,157.50
2022-09-28T11:39:43.064Z,151.88
2022-09-28T11:40:43.101Z,157.50
2022-09-28T11:41:43.019Z,151.88
2022-09-28T11:42:42.993Z,157.50
2022-09-28T11:43:42.982Z,163.12
2022-09-28T11:44:42.969Z,163.12
2022-09-28T11:45:43.034Z,157.50
2022-09-28T11:46:42.958Z,151.88
2022-09-28T11:47:42.942Z,146.25
2022-09-28T11:48:42.928Z,146.25
2022-09-28T11:49:42.912Z,146.25
2022-09-28T11:50:42.912Z,146.25
2022-09-28T11:51:42.907Z,151.88
2022-09-28T11:52:42.900Z,151.88
2022-09-28T11:53:42.870Z,157.50
2022-09-28T11:54:42.859Z,157.50
2022-09-28T11:55:42.864Z,163.12
2022-09-28T11:56:42.867Z,163.12
2022-09-28T11:57:42.829Z,163.12
2022-09-28T11:58:42.936Z,157.50
2022-09-28T11:59:42.807Z,157.50
2022-09-28T12:00:42.808Z,157.50
2022-09-28T12:01:42.792Z,163.12
2022-09-28T12:02:42.965Z,163.12
2022-09-28T12:03:43.041Z,163.12
2022-09-28T12:04:42.762Z,157.50
2022-09-28T12:05:42.739Z,157.50
2022-09-28T12:06:42.741Z,157.50
2022-09-28T12:07:42.730Z,151.88
2022-09-28T12:08:42.707Z,151.88
2022-09-28T12:09:42.694Z,151.88
2022-09-28T12:10:45.507Z,151.88
2022-09-28T12:11:42.688Z,146.25
2022-09-28T12:12:42.687Z,146.25
2022-09-28T12:13:42.652Z,146.25
2022-09-28T12:14:42.645Z,140.62
2022-09-28T12:16:11.612Z,140.62
2022-09-28T12:17:04.881Z,140.62
2022-09-28T12:17:43.687Z,135.00
2022-09-28T12:18:42.603Z,135.00
2022-09-28T12:19:42.590Z,135.00
2022-09-28T12:20:42.580Z,135.00
2022-09-28T12:21:42.628Z,135.00
2022-09-28T12:22:42.566Z,135.00
2022-09-28T12:23:42.545Z,135.00
2022-09-28T12:24:42.539Z,140.62
2022-09-28T12:25:42.526Z,140.62
2022-09-28T12:26:42.569Z,140.62
2022-09-28T12:27:42.503Z,140.62
2022-09-28T12:28:42.508Z,146.25
2022-09-28T12:29:42.479Z,146.25
2022-09-28T12:30:42.602Z,146.25
2022-09-28T12:31:42.477Z,146.25
2022-09-28T12:32:42.452Z,151.88
2022-09-28T12:33:42.438Z,151.88
2022-09-28T12:34:42.428Z,151.88
2022-09-28T12:35:42.417Z,157.50
2022-09-28T12:36:42.424Z,157.50
2022-09-28T12:37:42.397Z,163.12
2022-09-28T12:38:42.390Z,163.12
2022-09-28T12:39:57.114Z,163.12
2022-09-28T12:40:43.405Z,168.75
2022-09-28T12:41:42.361Z,168.75
2022-09-28T12:42:42.339Z,168.75
2022-09-28T12:43:42.338Z,174.38
2022-09-28T12:44:42.375Z,174.38
2022-09-28T12:46:06.810Z,174.38
2022-09-28T12:46:43.357Z,180.00
2022-09-28T12:47:42.292Z,180.00